Time;durP1;ratioP1;P1;durP2;ratioP2;P2;SDS_P1;SDS_P2;PMS_P1;PMS_P2;Temp;Humidity;BMP_temperature;BMP_pressure;BME280_temperature;BME280_humidity;BME280_pressure;Samples;Min_cycle;Max_cycle;Signal;HPM_P1;HPM_P2
2022/01/28 03:14:33;;;;;;;10.30;6.77;;;;;;;;;;6253161;22;20275;-88
2022/01/28 03:17:09;;;;;;;8.30;6.03;;;;;;;;;;6281483;22;20168;-86
2022/01/28 03:19:47;;;;;;;7.17;6.03;;;;;;;;;;6281487;22;20175;-86
2022/01/28 03:22:14;;;;;;;7.23;6.53;;;;;;;;;;6283388;22;20164;-86
2022/01/28 03:24:42;;;;;;;10.37;6.37;;;;;;;;;;6284118;22;20241;-85
2022/01/28 03:27:17;;;;;;;7.43;6.20;;;;;;;;;;6282360;22;20191;-87
2022/01/28 03:29:46;;;;;;;7.83;6.03;;;;;;;;;;6281988;22;20187;-84
2022/01/28 03:32:13;;;;;;;8.37;6.30;;;;;;;;;;6282009;22;20192;-86
2022/01/28 03:34:41;;;;;;;7.37;6.20;;;;;;;;;;6282853;22;20238;-86
2022/01/28 03:37:09;;;;;;;7.63;5.93;;;;;;;;;;6281663;22;20176;-86
2022/01/28 03:39:36;;;;;;;9.70;6.63;;;;;;;;;;6282630;22;20199;-86
2022/01/28 03:42:05;;;;;;;7.17;6.07;;;;;;;;;;6281921;22;20179;-87
2022/01/28 03:44:32;;;;;;;8.20;6.77;;;;;;;;;;6280332;22;20253;-86
2022/01/28 03:47:01;;;;;;;7.60;6.27;;;;;;;;;;6279840;22;20175;-86
2022/01/28 03:49:28;;;;;;;10.00;6.90;;;;;;;;;;6280396;22;20175;-86
2022/01/28 03:51:55;;;;;;;8.50;6.30;;;;;;;;;;6280686;22;20202;-84
2022/01/28 03:54:22;;;;;;;8.87;6.80;;;;;;;;;;6280363;22;20188;-85
2022/01/28 03:56:50;;;;;;;7.97;6.53;;;;;;;;;;6294746;22;20160;-86
2022/01/28 03:59:17;;;;;;;7.93;6.67;;;;;;;;;;6276915;22;20230;-87
2022/01/28 04:01:47;;;;;;;9.53;7.17;;;;;;;;;;6277107;22;20172;-86
2022/01/28 04:12:35;;;;;;;9.50;6.57;;;;;;;;;;6277111;22;20171;-86
2022/01/28 04:15:18;;;;;;;8.63;6.77;;;;;;;;;;6280051;22;20214;-86
2022/01/28 04:17:45;;;;;;;8.77;6.80;;;;;;;;;;6282265;22;20176;-86
2022/01/28 04:20:14;;;;;;;9.23;6.97;;;;;;;;;;6282311;22;20233;-86
2022/01/28 04:22:41;;;;;;;8.30;6.67;;;;;;;;;;6282699;22;20171;-86
2022/01/28 04:25:09;;;;;;;9.50;7.50;;;;;;;;;;6282210;22;20644;-86
2022/01/28 04:27:36;;;;;;;10.10;6.77;;;;;;;;;;6280786;22;20172;-86
2022/01/28 04:30:04;;;;;;;10.23;7.10;;;;;;;;;;6281785;22;20221;-85
2022/01/28 04:32:33;;;;;;;9.13;6.97;;;;;;;;;;6283963;22;20172;-85
2022/01/28 04:35:00;;;;;;;10.13;7.30;;;;;;;;;;6282464;22;20180;-86
2022/01/28 04:37:35;;;;;;;10.40;7.07;;;;;;;;;;6281381;22;20200;-86
2022/01/28 04:40:10;;;;;;;8.97;6.73;;;;;;;;;;6283476;22;20168;-86
2022/01/28 04:42:58;;;;;;;9.43;7.23;;;;;;;;;;6283964;22;20175;-86
2022/01/28 04:45:32;;;;;;;10.53;7.03;;;;;;;;;;6282368;22;20160;-85
2022/01/28 04:48:10;;;;;;;10.67;7.40;;;;;;;;;;6280108;22;20206;-84
2022/01/28 04:50:47;;;;;;;9.13;7.20;;;;;;;;;;6279282;22;20164;-86
2022/01/28 04:53:31;;;;;;;10.53;7.97;;;;;;;;;;6278822;22;20187;-85
2022/01/28 04:56:13;;;;;;;10.83;7.60;;;;;;;;;;6277530;22;20187;-86
2022/01/28 04:58:52;;;;;;;11.40;7.57;;;;;;;;;;6277532;22;20172;-84
2022/01/28 05:01:42;;;;;;;12.80;8.17;;;;;;;;;;6276672;22;20172;-86
2022/01/28 05:04:24;;;;;;;10.13;7.43;;;;;;;;;;6277300;22;20196;-85
2022/01/28 05:12:57;;;;;;;11.67;7.77;;;;;;;;;;6233619;22;20627;-85
2022/01/28 05:26:40;;;;;;;13.27;8.53;;;;;;;;;;6255767;22;20191;-85
2022/01/28 05:29:07;;;;;;;11.53;8.53;;;;;;;;;;6281415;22;20180;-82
2022/01/28 05:31:35;;;;;;;15.37;9.03;;;;;;;;;;6282002;22;20168;-84
2022/01/28 05:34:02;;;;;;;12.80;9.43;;;;;;;;;;6282846;22;20192;-86
2022/01/28 05:36:30;;;;;;;12.73;9.07;;;;;;;;;;6282578;22;20765;-83
2022/01/28 05:38:57;;;;;;;12.17;8.60;;;;;;;;;;6283457;22;20318;-86
2022/01/28 05:41:24;;;;;;;12.20;9.40;;;;;;;;;;6283998;22;20182;-83
2022/01/28 05:43:53;;;;;;;12.60;9.17;;;;;;;;;;6284048;22;20191;-86
2022/01/28 05:46:27;;;;;;;13.73;9.57;;;;;;;;;;6284277;22;20338;-84
2022/01/28 05:48:55;;;;;;;12.37;9.33;;;;;;;;;;6282853;22;20197;-86
2022/01/28 05:51:22;;;;;;;13.60;9.07;;;;;;;;;;6283455;22;20179;-86
2022/01/28 05:53:53;;;;;;;16.53;10.10;;;;;;;;;;6285830;22;20200;-85
2022/01/28 05:56:21;;;;;;;13.03;9.10;;;;;;;;;;6284896;22;20188;-84
2022/01/28 05:58:48;;;;;;;12.67;9.17;;;;;;;;;;6283077;22;20186;-87
2022/01/28 06:01:17;;;;;;;12.60;9.47;;;;;;;;;;6288786;22;20206;-85
2022/01/28 06:03:47;;;;;;;13.07;8.63;;;;;;;;;;6287030;22;20219;-85
2022/01/28 06:06:19;;;;;;;12.97;8.93;;;;;;;;;;6281107;22;20222;-86
2022/01/28 06:08:46;;;;;;;11.83;8.57;;;;;;;;;;6281695;22;20243;-85
2022/01/28 06:11:14;;;;;;;11.77;8.67;;;;;;;;;;6284079;22;20179;-86
2022/01/28 06:13:41;;;;;;;13.00;8.70;;;;;;;;;;6283737;22;20195;-85
2022/01/28 06:16:09;;;;;;;11.37;8.53;;;;;;;;;;6285265;22;20246;-84
2022/01/28 06:18:38;;;;;;;12.87;8.83;;;;;;;;;;6284893;22;20164;-84
2022/01/28 06:21:05;;;;;;;14.73;8.90;;;;;;;;;;6285157;22;20214;-86
2022/01/28 06:23:33;;;;;;;12.03;7.83;;;;;;;;;;6284459;22;20265;-84
2022/01/28 06:26:04;;;;;;;13.23;8.53;;;;;;;;;;6287086;22;20187;-85
2022/01/28 06:28:40;;;;;;;12.03;8.30;;;;;;;;;;6287308;22;20182;-85
2022/01/28 06:31:15;;;;;;;12.13;9.30;;;;;;;;;;6286483;22;20182;-83
2022/01/28 06:33:44;;;;;;;12.93;9.20;;;;;;;;;;6286778;22;20191;-83
2022/01/28 06:36:12;;;;;;;14.77;10.40;;;;;;;;;;6286333;22;20192;-87
2022/01/28 06:38:39;;;;;;;14.10;10.37;;;;;;;;;;6284518;22;20227;-86
2022/01/28 06:41:06;;;;;;;12.80;9.70;;;;;;;;;;6287680;22;20172;-84
2022/01/28 06:43:34;;;;;;;13.03;9.47;;;;;;;;;;6286850;22;20198;-86
2022/01/28 06:46:01;;;;;;;14.60;10.87;;;;;;;;;;6286043;22;20180;-84
2022/01/28 06:48:29;;;;;;;15.20;10.57;;;;;;;;;;6284237;22;20176;-86
2022/01/28 06:50:58;;;;;;;14.13;10.77;;;;;;;;;;6285311;22;20179;-84
2022/01/28 06:53:25;;;;;;;14.13;10.93;;;;;;;;;;6285675;22;20192;-86
2022/01/28 06:55:58;;;;;;;17.23;10.67;;;;;;;;;;6289002;22;20688;-86
2022/01/28 06:58:26;;;;;;;14.70;10.63;;;;;;;;;;6294997;22;20159;-86
2022/01/28 07:00:53;;;;;;;17.17;11.53;;;;;;;;;;6279766;22;20183;-85
2022/01/28 07:03:22;;;;;;;17.53;10.90;;;;;;;;;;6281040;22;20401;-84
2022/01/28 07:05:49;;;;;;;15.87;11.30;;;;;;;;;;6286851;22;20168;-85
2022/01/28 07:08:18;;;;;;;15.40;10.90;;;;;;;;;;6281909;22;20168;-85
2022/01/28 07:10:45;;;;;;;14.77;10.63;;;;;;;;;;6279579;22;20177;-85
2022/01/28 07:13:14;;;;;;;16.13;10.43;;;;;;;;;;6278493;22;20234;-86
2022/01/28 07:15:42;;;;;;;14.63;10.33;;;;;;;;;;6279762;22;20209;-86
2022/01/28 07:18:10;;;;;;;17.77;10.10;;;;;;;;;;6281334;22;20212;-85
2022/01/28 07:20:37;;;;;;;14.30;9.90;;;;;;;;;;6280846;22;20172;-82
2022/01/28 07:23:04;;;;;;;16.57;9.77;;;;;;;;;;6283961;22;20199;-84
2022/01/28 07:25:33;;;;;;;12.33;8.80;;;;;;;;;;6292019;22;20179;-83
2022/01/28 07:28:01;;;;;;;13.63;10.27;;;;;;;;;;6291273;22;20172;-84
2022/01/28 07:30:28;;;;;;;13.10;9.40;;;;;;;;;;6287885;22;20172;-82
2022/01/28 07:32:55;;;;;;;14.50;10.23;;;;;;;;;;6284326;22;20198;-85
2022/01/28 07:35:23;;;;;;;15.43;10.17;;;;;;;;;;6285323;22;20176;-85
2022/01/28 07:37:50;;;;;;;12.97;9.73;;;;;;;;;;6280024;22;20666;-84
2022/01/28 07:40:17;;;;;;;13.93;10.20;;;;;;;;;;6281439;22;20224;-84
2022/01/28 07:42:46;;;;;;;15.20;9.90;;;;;;;;;;6281509;22;20180;-85
2022/01/28 07:45:15;;;;;;;15.03;9.77;;;;;;;;;;6280637;22;20172;-85
2022/01/28 07:47:42;;;;;;;13.70;9.60;;;;;;;;;;6281593;22;20183;-85
2022/01/28 07:50:10;;;;;;;13.17;9.57;;;;;;;;;;6283035;22;20175;-83
2022/01/28 07:52:37;;;;;;;15.93;10.60;;;;;;;;;;6280860;22;20174;-85
2022/01/28 07:55:09;;;;;;;13.50;8.97;;;;;;;;;;6284222;22;20188;-84
2022/01/28 07:57:38;;;;;;;11.80;8.53;;;;;;;;;;6283915;22;20184;-82
2022/01/28 08:00:33;;;;;;;12.07;8.93;;;;;;;;;;6281205;22;20164;-84
2022/01/28 08:03:00;;;;;;;12.67;7.70;;;;;;;;;;6278759;22;20192;-86
2022/01/28 08:05:28;;;;;;;12.30;9.03;;;;;;;;;;6278541;22;20172;-86
2022/01/28 08:07:55;;;;;;;11.03;7.93;;;;;;;;;;6277013;22;20172;-85
2022/01/28 08:10:25;;;;;;;13.27;8.30;;;;;;;;;;6281032;22;20176;-86
2022/01/28 08:12:54;;;;;;;11.23;7.60;;;;;;;;;;6281983;22;20237;-85
2022/01/28 08:15:23;;;;;;;10.23;7.37;;;;;;;;;;6280010;22;20148;-86
2022/01/28 08:17:51;;;;;;;10.80;7.23;;;;;;;;;;6279689;22;20198;-84
2022/01/28 08:20:18;;;;;;;10.87;7.10;;;;;;;;;;6282154;22;20197;-83
2022/01/28 08:22:46;;;;;;;10.40;8.17;;;;;;;;;;6286090;22;20168;-83
2022/01/28 08:25:14;;;;;;;11.27;7.17;;;;;;;;;;6283736;22;20233;-85
2022/01/28 08:27:43;;;;;;;10.67;7.10;;;;;;;;;;6284455;22;20176;-85
2022/01/28 08:30:11;;;;;;;8.00;6.50;;;;;;;;;;6284632;22;20231;-85
2022/01/28 08:32:40;;;;;;;12.67;7.67;;;;;;;;;;6284720;22;20176;-85
2022/01/28 08:35:07;;;;;;;8.43;7.10;;;;;;;;;;6284070;22;20175;-85
2022/01/28 08:37:35;;;;;;;8.37;6.50;;;;;;;;;;6281711;22;20187;-85
2022/01/28 08:40:02;;;;;;;9.10;6.43;;;;;;;;;;6280977;22;20225;-84
2022/01/28 08:42:30;;;;;;;9.60;6.30;;;;;;;;;;6288652;22;20203;-83
2022/01/28 08:47:40;;;;;;;7.60;5.97;;;;;;;;;;6282662;22;20200;-85
2022/01/28 08:50:08;;;;;;;8.73;5.63;;;;;;;;;;6282698;22;20282;-84
2022/01/28 08:52:37;;;;;;;7.53;5.90;;;;;;;;;;6281370;22;20171;-84
2022/01/28 08:57:50;;;;;;;7.17;6.00;;;;;;;;;;6276246;22;20283;-86
2022/01/28 09:00:22;;;;;;;7.47;5.63;;;;;;;;;;6278794;22;20229;-85
2022/01/28 09:03:03;;;;;;;6.60;5.37;;;;;;;;;;6279124;22;20628;-86
2022/01/28 09:05:33;;;;;;;10.57;5.70;;;;;;;;;;6278953;22;20171;-86
2022/01/28 09:08:06;;;;;;;7.23;5.00;;;;;;;;;;6279406;22;20194;-83
2022/01/28 09:10:33;;;;;;;9.00;5.37;;;;;;;;;;6281870;22;20247;-83
2022/01/28 09:15:31;;;;;;;7.23;5.10;;;;;;;;;;6282767;22;20666;-83
2022/01/28 09:18:17;;;;;;;10.10;5.03;;;;;;;;;;6287392;22;20196;-85
2022/01/28 09:20:49;;;;;;;8.27;4.53;;;;;;;;;;6285004;22;20172;-84
2022/01/28 09:23:25;;;;;;;8.03;4.97;;;;;;;;;;6285928;22;20168;-85
2022/01/28 09:25:57;;;;;;;8.07;4.77;;;;;;;;;;6285972;22;20168;-86
2022/01/28 09:28:27;;;;;;;6.13;4.43;;;;;;;;;;6285826;22;20168;-83
2022/01/28 09:30:57;;;;;;;6.10;4.30;;;;;;;;;;6285286;22;20202;-85
2022/01/28 09:33:34;;;;;;;8.10;4.73;;;;;;;;;;6285878;22;20187;-82
2022/01/28 09:36:07;;;;;;;6.83;4.53;;;;;;;;;;6285174;22;20182;-85
2022/01/28 09:38:37;;;;;;;5.67;4.10;;;;;;;;;;6285501;22;20198;-85
2022/01/28 09:41:08;;;;;;;8.37;4.40;;;;;;;;;;6290201;22;20216;-85
2022/01/28 09:43:36;;;;;;;8.93;4.50;;;;;;;;;;6288320;22;20194;-86
2022/01/28 09:46:06;;;;;;;6.80;4.30;;;;;;;;;;6287961;22;20247;-86
2022/01/28 09:48:35;;;;;;;5.73;4.17;;;;;;;;;;6288167;22;20168;-86
2022/01/28 09:51:07;;;;;;;9.57;4.27;;;;;;;;;;6290085;22;20178;-86
2022/01/28 09:53:35;;;;;;;4.83;4.07;;;;;;;;;;6286367;22;20215;-85
2022/01/28 09:56:03;;;;;;;6.80;4.23;;;;;;;;;;6286323;22;20172;-86
2022/01/28 09:58:30;;;;;;;6.80;4.40;;;;;;;;;;6284136;22;20168;-84
2022/01/28 10:00:58;;;;;;;7.43;3.30;;;;;;;;;;6282665;22;20168;-84
2022/01/28 10:03:27;;;;;;;7.17;3.33;;;;;;;;;;6281145;22;20196;-83
2022/01/28 10:05:59;;;;;;;7.47;3.67;;;;;;;;;;6282013;22;20175;-85
2022/01/28 10:08:29;;;;;;;7.67;3.37;;;;;;;;;;6281434;22;20164;-83
2022/01/28 10:11:03;;;;;;;5.13;3.40;;;;;;;;;;6291975;22;20164;-87
2022/01/28 10:13:36;;;;;;;9.20;3.50;;;;;;;;;;6286659;22;20207;-86
2022/01/28 10:16:08;;;;;;;6.77;4.10;;;;;;;;;;6280756;22;20174;-84
2022/01/28 10:18:39;;;;;;;5.63;3.37;;;;;;;;;;6279099;22;20171;-81
2022/01/28 10:21:18;;;;;;;5.33;3.63;;;;;;;;;;6278232;22;20195;-82
2022/01/28 10:24:00;;;;;;;4.87;3.30;;;;;;;;;;6279598;22;20191;-83
2022/01/28 10:26:42;;;;;;;8.90;3.70;;;;;;;;;;6277686;22;20348;-83
2022/01/28 10:29:19;;;;;;;6.00;3.50;;;;;;;;;;6278748;22;20184;-84
2022/01/28 10:31:48;;;;;;;6.90;3.80;;;;;;;;;;6277640;22;20170;-81
2022/01/28 10:34:20;;;;;;;7.20;3.50;;;;;;;;;;6283861;22;20286;-84
2022/01/28 10:36:48;;;;;;;7.20;3.23;;;;;;;;;;6281174;22;20184;-83
2022/01/28 10:39:20;;;;;;;5.67;3.10;;;;;;;;;;6281378;22;20168;-83
2022/01/28 10:41:54;;;;;;;6.93;2.80;;;;;;;;;;6279461;22;20226;-83
2022/01/28 10:44:22;;;;;;;4.70;2.50;;;;;;;;;;6279379;22;20195;-82
2022/01/28 10:46:56;;;;;;;5.23;2.50;;;;;;;;;;6278980;22;20168;-84
2022/01/28 10:49:34;;;;;;;6.70;2.63;;;;;;;;;;6280549;22;20171;-83
2022/01/28 10:52:16;;;;;;;5.10;2.40;;;;;;;;;;6280640;22;20168;-84
2022/01/28 10:54:44;;;;;;;7.10;2.57;;;;;;;;;;6278219;22;20200;-83
2022/01/28 10:57:13;;;;;;;5.07;2.57;;;;;;;;;;6282840;22;20245;-81
2022/01/28 10:59:41;;;;;;;5.50;2.53;;;;;;;;;;6285971;22;20555;-83
2022/01/28 11:02:09;;;;;;;4.23;1.90;;;;;;;;;;6294969;22;20179;-86
2022/01/28 11:04:38;;;;;;;5.23;2.30;;;;;;;;;;6296690;22;20256;-83
2022/01/28 11:07:06;;;;;;;3.97;2.10;;;;;;;;;;6286997;22;20179;-81
2022/01/28 11:09:34;;;;;;;6.37;2.43;;;;;;;;;;6282495;22;20215;-83
2022/01/28 11:12:10;;;;;;;3.90;2.80;;;;;;;;;;6290530;22;20167;-82
2022/01/28 11:14:39;;;;;;;5.43;2.50;;;;;;;;;;6280421;22;20249;-82
2022/01/28 11:17:16;;;;;;;3.80;2.53;;;;;;;;;;6279679;22;20503;-80
2022/01/28 11:19:55;;;;;;;8.23;2.90;;;;;;;;;;6282519;22;20163;-84
2022/01/28 11:22:47;;;;;;;3.33;2.50;;;;;;;;;;6282246;22;20172;-85
2022/01/28 11:25:36;;;;;;;4.30;2.53;;;;;;;;;;6267137;22;20199;-84
2022/01/28 11:31:25;;;;;;;5.90;2.93;;;;;;;;;;6280229;22;20176;-85
2022/01/28 11:33:53;;;;;;;5.93;2.90;;;;;;;;;;6224671;22;20643;-86
2022/01/28 11:36:42;;;;;;;4.93;2.90;;;;;;;;;;6283352;22;20183;-86
2022/01/28 11:39:24;;;;;;;4.03;2.40;;;;;;;;;;6277833;22;20187;-86
2022/01/28 11:42:00;;;;;;;5.10;2.20;;;;;;;;;;6265582;22;20210;-84
2022/01/28 11:44:59;;;;;;;6.80;2.47;;;;;;;;;;6285518;22;20200;-83
2022/01/28 11:47:41;;;;;;;5.87;2.50;;;;;;;;;;6284673;22;20160;-84
2022/01/28 11:53:46;;;;;;;5.37;2.23;;;;;;;;;;6218591;22;20206;-83
2022/01/28 11:59:42;;;;;;;5.23;2.90;;;;;;;;;;6245471;22;20171;-82
2022/01/28 12:21:42;;;;;;;7.20;3.57;;;;;;;;;;6141170;23;20176;-84
2022/01/28 12:24:29;;;;;;;5.57;3.50;;;;;;;;;;6283100;22;20239;-86
2022/01/28 12:27:10;;;;;;;6.33;3.60;;;;;;;;;;6285290;22;20224;-83
2022/01/28 12:29:47;;;;;;;6.03;3.90;;;;;;;;;;6293015;22;20164;-85
2022/01/28 12:35:12;;;;;;;7.67;4.13;;;;;;;;;;6261987;22;20196;-84
2022/01/28 12:38:00;;;;;;;6.70;4.23;;;;;;;;;;6280365;22;20183;-83
2022/01/28 12:40:35;;;;;;;8.20;4.40;;;;;;;;;;6282247;22;20168;-85
2022/01/28 12:48:32;;;;;;;5.33;4.10;;;;;;;;;;6279850;22;20183;-84
2022/01/28 13:23:35;;;;;;;9.43;5.57;;;;;;;;;;6095735;23;20301;-84
2022/01/28 13:26:14;;;;;;;7.87;5.53;;;;;;;;;;6172187;23;20173;-82
2022/01/28 13:28:51;;;;;;;10.27;6.00;;;;;;;;;;6181432;23;20221;-84
2022/01/28 13:31:30;;;;;;;6.90;5.63;;;;;;;;;;6181801;23;20172;-85
2022/01/28 13:34:06;;;;;;;10.97;6.30;;;;;;;;;;6183229;23;20194;-86
2022/01/28 13:45:37;;;;;;;10.73;6.70;;;;;;;;;;6268924;22;20207;-79
2022/01/28 13:51:29;;;;;;;8.70;6.13;;;;;;;;;;6212705;23;20240;-85
2022/01/28 13:56:58;;;;;;;7.60;6.13;;;;;;;;;;6277966;22;20189;-84
2022/01/28 13:59:33;;;;;;;7.80;6.07;;;;;;;;;;6241071;22;20273;-83
2022/01/28 14:20:26;;;;;;;9.43;6.47;;;;;;;;;;6276542;22;20207;-85
2022/01/28 14:22:54;;;;;;;9.90;6.73;;;;;;;;;;6280791;22;20175;-84
2022/01/28 14:25:21;;;;;;;10.90;6.20;;;;;;;;;;6281042;22;20192;-84
2022/01/28 14:28:13;;;;;;;11.93;6.27;;;;;;;;;;6281205;22;20192;-87
2022/01/28 14:30:43;;;;;;;9.77;6.23;;;;;;;;;;6280632;22;20175;-86
2022/01/28 14:33:15;;;;;;;8.50;6.10;;;;;;;;;;6283098;22;20230;-85
2022/01/28 14:35:51;;;;;;;12.90;6.47;;;;;;;;;;6283830;22;20211;-87
2022/01/28 14:38:20;;;;;;;7.10;6.33;;;;;;;;;;6282185;22;20179;-87
2022/01/28 14:40:49;;;;;;;8.40;6.03;;;;;;;;;;6282171;22;20191;-86
2022/01/28 14:43:18;;;;;;;7.80;5.53;;;;;;;;;;6279156;22;20179;-89
2022/01/28 14:45:46;;;;;;;8.33;5.23;;;;;;;;;;6278801;22;20191;-87
2022/01/28 14:48:20;;;;;;;9.80;5.70;;;;;;;;;;6279310;22;20167;-86
2022/01/28 14:50:47;;;;;;;8.93;5.43;;;;;;;;;;6280318;22;20165;-86
2022/01/28 14:53:15;;;;;;;8.23;5.20;;;;;;;;;;6279973;22;20175;-86
2022/01/28 14:55:44;;;;;;;7.53;5.47;;;;;;;;;;6281081;22;20172;-87
2022/01/28 14:58:11;;;;;;;6.17;4.87;;;;;;;;;;6279883;22;20196;-87
2022/01/28 15:00:39;;;;;;;8.20;5.13;;;;;;;;;;6281076;22;20172;-87
2022/01/28 15:03:13;;;;;;;8.73;5.73;;;;;;;;;;6281435;22;20168;-84
2022/01/28 15:05:42;;;;;;;7.73;5.80;;;;;;;;;;6281704;22;20233;-86
2022/01/28 15:08:11;;;;;;;8.57;5.77;;;;;;;;;;6286021;22;20168;-85
2022/01/28 15:10:40;;;;;;;7.93;5.27;;;;;;;;;;6281581;22;20176;-86
2022/01/28 15:13:08;;;;;;;8.27;5.80;;;;;;;;;;6281543;22;20168;-85
2022/01/28 15:15:40;;;;;;;8.73;6.00;;;;;;;;;;6276124;22;20299;-80
2022/01/28 15:18:07;;;;;;;6.93;6.00;;;;;;;;;;6281997;22;20221;-83
2022/01/28 15:20:35;;;;;;;8.90;5.77;;;;;;;;;;6282737;22;20180;-82
2022/01/28 15:23:04;;;;;;;7.47;5.80;;;;;;;;;;6283705;22;20172;-83
2022/01/28 15:25:32;;;;;;;9.37;5.73;;;;;;;;;;6283120;22;20217;-83
2022/01/28 15:28:03;;;;;;;10.03;5.20;;;;;;;;;;6281820;22;20168;-82
2022/01/28 15:34:13;;;;;;;8.57;5.50;;;;;;;;;;6283013;22;20171;-82
2022/01/28 15:36:07;;;;;;;10.43;5.60;;;;;;;;;;6282687;22;20182;-82
2022/01/28 15:38:36;;;;;;;12.83;6.23;;;;;;;;;;6281745;22;20184;-83
2022/01/28 15:41:05;;;;;;;8.37;5.87;;;;;;;;;;6282784;22;20171;-80
2022/01/28 15:43:33;;;;;;;8.17;5.60;;;;;;;;;;6283821;22;20182;-82
2022/01/28 15:46:06;;;;;;;7.77;5.90;;;;;;;;;;6285904;22;20172;-83
2022/01/28 15:48:36;;;;;;;8.73;6.13;;;;;;;;;;6284154;22;20194;-82
2022/01/28 15:51:04;;;;;;;8.63;6.13;;;;;;;;;;6285117;22;20226;-85
2022/01/28 15:53:31;;;;;;;9.73;6.33;;;;;;;;;;6285150;22;20198;-82
2022/01/28 15:56:01;;;;;;;8.83;6.47;;;;;;;;;;6284423;22;20192;-83
2022/01/28 15:58:29;;;;;;;10.00;6.60;;;;;;;;;;6283785;22;20184;-81
2022/01/28 16:01:02;;;;;;;8.80;7.03;;;;;;;;;;6289233;22;20174;-83
2022/01/28 16:03:30;;;;;;;10.83;6.23;;;;;;;;;;6282437;22;20168;-81
2022/01/28 16:05:59;;;;;;;9.33;6.87;;;;;;;;;;6283252;22;20192;-83
2022/01/28 16:08:26;;;;;;;10.20;7.03;;;;;;;;;;6288143;22;20251;-83
2022/01/28 16:11:13;;;;;;;9.33;6.77;;;;;;;;;;6287932;22;20183;-84
2022/01/28 16:14:00;;;;;;;8.60;6.37;;;;;;;;;;6285366;22;20164;-80
2022/01/28 16:19:13;;;;;;;9.70;7.07;;;;;;;;;;6282722;22;20261;-80
2022/01/28 16:21:40;;;;;;;11.40;7.40;;;;;;;;;;6282721;22;20247;-81
2022/01/28 16:24:11;;;;;;;11.23;6.97;;;;;;;;;;6279754;22;20192;-84
2022/01/28 16:26:38;;;;;;;10.20;6.70;;;;;;;;;;6285288;22;20194;-82
2022/01/28 16:29:07;;;;;;;9.70;7.23;;;;;;;;;;6287087;22;20168;-83
2022/01/28 16:31:36;;;;;;;10.20;6.57;;;;;;;;;;6294511;22;20195;-81
2022/01/28 16:34:07;;;;;;;12.03;6.90;;;;;;;;;;6294047;22;20192;-79
2022/01/28 16:36:35;;;;;;;11.10;6.20;;;;;;;;;;6298402;22;20183;-84
2022/01/28 16:39:02;;;;;;;10.83;7.17;;;;;;;;;;6299507;22;20191;-85
2022/01/28 16:41:37;;;;;;;9.07;6.10;;;;;;;;;;6296920;22;20224;-81
2022/01/28 16:44:09;;;;;;;10.90;6.93;;;;;;;;;;6291405;22;20215;-79
2022/01/28 16:46:38;;;;;;;9.67;6.50;;;;;;;;;;6281893;22;20164;-80
2022/01/28 16:49:06;;;;;;;10.67;7.07;;;;;;;;;;6280541;22;20171;-78
2022/01/28 16:51:36;;;;;;;10.93;7.10;;;;;;;;;;6281163;22;20239;-80
2022/01/28 16:54:04;;;;;;;9.03;6.27;;;;;;;;;;6281737;22;20200;-81
2022/01/28 16:56:32;;;;;;;9.63;7.00;;;;;;;;;;6282395;22;20176;-81
2022/01/28 16:58:59;;;;;;;11.13;7.20;;;;;;;;;;6281318;22;20184;-83
2022/01/28 17:01:26;;;;;;;9.87;6.83;;;;;;;;;;6283668;22;20183;-79
2022/01/28 17:03:57;;;;;;;11.50;7.53;;;;;;;;;;6285033;22;20196;-84
2022/01/28 17:06:27;;;;;;;9.43;6.77;;;;;;;;;;6287469;22;20172;-84
2022/01/28 17:08:57;;;;;;;11.37;8.13;;;;;;;;;;6285824;22;20179;-84
2022/01/28 17:11:41;;;;;;;12.73;8.27;;;;;;;;;;6286058;22;20188;-83
2022/01/28 17:14:08;;;;;;;12.43;7.97;;;;;;;;;;6285246;22;20196;-84
2022/01/28 17:16:38;;;;;;;15.43;10.17;;;;;;;;;;6284786;22;20164;-83
2022/01/28 17:19:07;;;;;;;11.63;8.60;;;;;;;;;;6284398;22;20187;-87
2022/01/28 17:21:35;;;;;;;12.13;8.83;;;;;;;;;;6286763;22;20178;-86
2022/01/28 17:24:03;;;;;;;12.83;8.70;;;;;;;;;;6287246;22;20191;-84
2022/01/28 17:26:35;;;;;;;12.60;8.30;;;;;;;;;;6288095;22;20190;-83
2022/01/28 17:29:07;;;;;;;17.50;12.50;;;;;;;;;;6287437;22;20209;-86
2022/01/28 17:34:38;;;;;;;12.23;7.73;;;;;;;;;;6238897;22;20210;-84
2022/01/28 17:37:13;;;;;;;12.87;9.33;;;;;;;;;;6285983;22;20180;-79
2022/01/28 17:43:10;;;;;;;10.57;8.20;;;;;;;;;;6286201;22;20168;-80
2022/01/28 17:45:40;;;;;;;12.87;7.53;;;;;;;;;;6288183;22;20250;-84
2022/01/28 17:52:11;;;;;;;14.43;7.67;;;;;;;;;;6287928;22;20167;-84
2022/01/28 17:54:46;;;;;;;10.13;7.50;;;;;;;;;;6194246;23;20198;-82
2022/01/28 17:57:14;;;;;;;11.83;8.10;;;;;;;;;;6272136;22;20171;-84
2022/01/28 17:59:44;;;;;;;10.10;7.33;;;;;;;;;;6283106;22;20198;-80
2022/01/28 18:02:20;;;;;;;12.10;8.33;;;;;;;;;;6286936;22;20222;-82
2022/01/28 18:04:50;;;;;;;10.20;7.50;;;;;;;;;;6287854;22;20195;-82
2022/01/28 18:07:33;;;;;;;11.60;8.03;;;;;;;;;;6285895;22;20184;-80
2022/01/28 18:10:05;;;;;;;12.03;7.67;;;;;;;;;;6289725;22;20466;-82
2022/01/28 18:12:32;;;;;;;9.20;8.13;;;;;;;;;;6290387;22;20221;-83
2022/01/28 18:15:00;;;;;;;10.87;8.30;;;;;;;;;;6283854;22;20211;-82
2022/01/28 18:17:34;;;;;;;12.73;8.03;;;;;;;;;;6282213;22;20175;-80
2022/01/28 18:22:59;;;;;;;10.63;7.53;;;;;;;;;;6283302;22;20171;-86
2022/01/28 18:25:28;;;;;;;10.80;7.77;;;;;;;;;;6283836;22;20192;-81
2022/01/28 18:34:22;;;;;;;10.03;7.57;;;;;;;;;;6134693;23;20191;-84
2022/01/28 18:39:42;;;;;;;12.30;8.23;;;;;;;;;;6199625;23;20194;-85
2022/01/28 18:42:20;;;;;;;12.83;9.03;;;;;;;;;;6204778;23;20178;-86
2022/01/28 18:45:11;;;;;;;11.07;8.33;;;;;;;;;;6203841;23;20209;-85
2022/01/28 18:47:44;;;;;;;13.57;8.67;;;;;;;;;;6198517;23;20213;-83
2022/01/28 18:50:21;;;;;;;13.47;8.90;;;;;;;;;;6198351;23;20491;-85
2022/01/28 18:53:32;;;;;;;12.20;9.63;;;;;;;;;;6197758;23;20166;-85
2022/01/28 18:56:12;;;;;;;12.43;8.57;;;;;;;;;;6196412;23;20232;-83
2022/01/28 18:58:47;;;;;;;15.33;7.97;;;;;;;;;;6197486;23;20185;-80
2022/01/28 19:01:37;;;;;;;9.80;7.63;;;;;;;;;;6202376;23;20269;-85
2022/01/28 19:04:20;;;;;;;11.23;7.93;;;;;;;;;;6184342;23;20248;-84
2022/01/28 19:09:32;;;;;;;11.90;8.07;;;;;;;;;;6293665;22;20196;-84
2022/01/28 19:11:59;;;;;;;11.40;7.83;;;;;;;;;;6278998;22;20172;-85
2022/01/28 19:14:30;;;;;;;11.20;8.00;;;;;;;;;;6278110;22;20200;-86
2022/01/28 19:16:58;;;;;;;11.93;8.53;;;;;;;;;;6278953;22;20176;-85
2022/01/28 19:19:33;;;;;;;11.13;8.03;;;;;;;;;;6279755;22;20188;-85
2022/01/28 19:22:00;;;;;;;13.70;8.13;;;;;;;;;;6281188;22;20196;-86
2022/01/28 19:24:44;;;;;;;14.67;8.80;;;;;;;;;;6280966;22;20207;-84
2022/01/28 19:30:16;;;;;;;13.83;8.87;;;;;;;;;;6283024;22;20229;-85
2022/01/28 19:32:44;;;;;;;13.27;9.23;;;;;;;;;;6286274;22;20153;-83
2022/01/28 19:35:20;;;;;;;11.90;8.40;;;;;;;;;;6286989;22;20188;-83
2022/01/28 19:37:50;;;;;;;12.87;9.00;;;;;;;;;;6288236;22;20166;-85
2022/01/28 19:40:28;;;;;;;13.53;8.70;;;;;;;;;;6288712;22;20194;-82
2022/01/28 19:42:55;;;;;;;11.10;8.50;;;;;;;;;;6289585;22;20175;-84
2022/01/28 19:45:26;;;;;;;11.90;9.17;;;;;;;;;;6286465;22;20271;-84
2022/01/28 19:48:11;;;;;;;11.83;7.70;;;;;;;;;;6288349;22;20226;-85
2022/01/28 19:50:54;;;;;;;11.57;8.20;;;;;;;;;;6287068;22;20488;-84
2022/01/28 19:53:33;;;;;;;12.50;8.47;;;;;;;;;;6286966;22;20183;-84
2022/01/28 19:59:11;;;;;;;12.20;7.93;;;;;;;;;;6283265;22;20206;-82
2022/01/28 20:01:45;;;;;;;9.93;7.77;;;;;;;;;;6286586;22;20215;-84
2022/01/28 20:13:25;;;;;;;11.87;8.30;;;;;;;;;;6259653;22;20191;-83
2022/01/28 20:15:52;;;;;;;11.23;8.67;;;;;;;;;;6287616;22;20200;-84
2022/01/28 20:18:42;;;;;;;;;;;;;;;;;;;;;
2022/01/28 20:24:13;;;;;;;11.10;8.00;;;;;;;;;;6285813;22;20227;-83
2022/01/28 20:26:49;;;;;;;13.00;8.40;;;;;;;;;;6288542;22;20168;-84
2022/01/28 20:32:49;;;;;;;9.60;8.33;;;;;;;;;;6278661;22;20172;-85
2022/01/28 20:35:22;;;;;;;11.47;8.67;;;;;;;;;;6287610;22;20192;-84
2022/01/28 20:37:51;;;;;;;10.97;8.37;;;;;;;;;;6284376;22;20167;-86
2022/01/28 20:40:18;;;;;;;11.20;8.90;;;;;;;;;;6284185;22;20214;-82
2022/01/28 20:42:46;;;;;;;10.23;8.43;;;;;;;;;;6283255;22;20172;-83
2022/01/28 20:45:15;;;;;;;13.30;9.10;;;;;;;;;;6284476;22;20187;-81
2022/01/28 20:47:42;;;;;;;12.27;8.90;;;;;;;;;;6284786;22;20171;-82
2022/01/28 20:50:10;;;;;;;14.07;9.00;;;;;;;;;;6286995;22;20187;-82
2022/01/28 20:52:42;;;;;;;10.80;8.60;;;;;;;;;;6285709;22;20172;-85
2022/01/28 20:55:13;;;;;;;11.77;8.97;;;;;;;;;;6287027;22;20188;-83
2022/01/28 20:57:41;;;;;;;9.63;7.80;;;;;;;;;;6286345;22;20187;-84
2022/01/28 21:00:17;;;;;;;13.03;8.77;;;;;;;;;;6286174;22;20266;-83
2022/01/28 21:02:47;;;;;;;10.37;7.90;;;;;;;;;;6285747;22;20172;-82
2022/01/28 21:05:15;;;;;;;10.63;7.57;;;;;;;;;;6287224;22;20226;-83
2022/01/28 21:07:48;;;;;;;12.17;8.33;;;;;;;;;;6287746;22;20171;-81
2022/01/28 21:10:17;;;;;;;10.70;7.80;;;;;;;;;;6288112;22;20160;-83
2022/01/28 21:12:45;;;;;;;9.40;7.57;;;;;;;;;;6288720;22;20176;-82
